Time;durP1;ratioP1;P1;durP2;ratioP2;P2;SDS_P1;SDS_P2;PMS_P1;PMS_P2;Temp;Humidity;BMP_temperature;BMP_pressure;BME280_temperature;BME280_humidity;BME280_pressure;Samples;Min_cycle;Max_cycle;Signal;HPM_P1;HPM_P2
2023/05/22 00:00:06;;;;;;;20.45;17.48;;;;;;;15.99;100.00;101336.41;5010631;28;20109;-67
2023/05/22 00:02:32;;;;;;;20.48;16.65;;;;;;;15.95;100.00;101335.47;5011008;28;20033;-68
2023/05/22 00:04:59;;;;;;;19.75;17.13;;;;;;;15.91;100.00;101338.88;5011059;28;20105;-68
2023/05/22 00:07:26;;;;;;;20.35;17.95;;;;;;;15.83;100.00;101342.22;5010874;28;20415;-68
2023/05/22 00:09:52;;;;;;;19.60;17.58;;;;;;;15.78;100.00;101336.03;5010763;28;20014;-67
2023/05/22 00:12:18;;;;;;;19.40;17.33;;;;;;;15.78;100.00;101330.81;5010898;28;20033;-67
2023/05/22 00:14:43;;;;;;;19.75;17.52;;;;;;;15.75;100.00;101329.88;5010835;28;20041;-67
2023/05/22 00:17:09;;;;;;;20.80;17.88;;;;;;;15.72;100.00;101333.34;5010483;28;20021;-68
2023/05/22 00:19:34;;;;;;;20.17;17.30;;;;;;;15.70;100.00;101337.66;5010382;28;20398;-68
2023/05/22 00:22:00;;;;;;;18.73;16.83;;;;;;;15.68;100.00;101334.13;5010211;28;20088;-68
2023/05/22 00:24:25;;;;;;;21.20;16.40;;;;;;;15.64;100.00;101334.91;4993098;28;20432;-67
2023/05/22 00:26:50;;;;;;;24.65;17.23;;;;;;;15.59;100.00;101330.50;5010376;28;20552;-68
2023/05/22 00:29:15;;;;;;;18.90;16.88;;;;;;;15.55;100.00;101333.88;5011342;28;20026;-68
2023/05/22 00:31:41;;;;;;;21.27;17.65;;;;;;;15.47;100.00;101333.72;5009920;28;20524;-67
2023/05/22 00:34:06;;;;;;;19.83;16.55;;;;;;;15.46;100.00;101336.31;5010616;28;20030;-67
2023/05/22 00:36:31;;;;;;;20.08;17.40;;;;;;;15.45;100.00;101329.34;5009917;28;20409;-68
2023/05/22 00:38:57;;;;;;;20.83;18.10;;;;;;;15.46;100.00;101331.09;5010456;28;20029;-68
2023/05/22 00:41:22;;;;;;;20.80;17.40;;;;;;;15.45;100.00;101334.56;5010279;28;20017;-67
2023/05/22 00:43:49;;;;;;;21.20;16.77;;;;;;;15.42;100.00;101318.81;4992790;28;20035;-70
2023/05/22 00:46:20;;;;;;;20.15;17.60;;;;;;;15.41;100.00;101322.28;5009641;28;20022;-67
2023/05/22 00:48:45;;;;;;;19.77;17.45;;;;;;;15.40;100.00;101320.53;4992494;28;20373;-66
2023/05/22 00:51:11;;;;;;;18.55;16.55;;;;;;;15.37;100.00;101323.97;4992365;28;20021;-66
2023/05/22 00:53:36;;;;;;;20.13;17.13;;;;;;;15.34;100.00;101326.53;5009311;28;20037;-66
2023/05/22 00:56:02;;;;;;;19.15;16.75;;;;;;;15.33;100.00;101323.03;5009317;28;20022;-70
2023/05/22 00:58:27;;;;;;;21.42;17.38;;;;;;;15.33;100.00;101327.34;5010502;28;20037;-67
2023/05/22 01:00:54;;;;;;;23.33;19.27;;;;;;;15.30;100.00;101336.03;5009690;28;20030;-68
2023/05/22 01:03:24;;;;;;;19.33;17.42;;;;;;;15.25;100.00;101327.22;4991973;28;20028;-68
2023/05/22 01:05:51;;;;;;;21.30;18.67;;;;;;;15.23;100.00;101323.69;4992724;28;20331;-67
2023/05/22 01:08:16;;;;;;;18.55;16.58;;;;;;;15.22;100.00;101320.19;5010209;28;20029;-68
2023/05/22 01:10:42;;;;;;;20.35;18.10;;;;;;;15.21;100.00;101320.16;5010448;28;20033;-68
2023/05/22 01:13:24;;;;;;;22.30;18.90;;;;;;;15.18;100.00;101325.31;5009797;28;20026;-67
2023/05/22 01:16:05;;;;;;;19.15;17.08;;;;;;;15.13;100.00;101326.09;5009308;28;20014;-66
2023/05/22 01:18:36;;;;;;;;;;;;;;;15.10;100.00;101320.84;5009889;28;20021;-67
2023/05/22 01:21:29;;;;;;;21.50;17.88;;;;;;;15.08;100.00;101314.69;5009903;28;19920;-67
2023/05/22 01:24:26;;;;;;;21.83;18.15;;;;;;;15.05;100.00;101324.19;5008957;28;20021;-68
2023/05/22 01:27:33;;;;;;;24.98;19.48;;;;;;;14.98;100.00;101315.34;5009294;28;20041;-67
2023/05/22 01:29:59;;;;;;;22.20;19.55;;;;;;;14.93;100.00;101317.84;5009487;28;20037;-68
2023/05/22 01:32:27;;;;;;;23.10;19.27;;;;;;;14.88;100.00;101316.88;5009423;28;20637;-68
2023/05/22 01:34:57;;;;;;;23.42;20.52;;;;;;;14.83;100.00;101316.78;4991242;28;20117;-67
2023/05/22 01:37:23;;;;;;;25.98;21.95;;;;;;;14.80;100.00;101316.69;5008575;28;20104;-67
2023/05/22 01:39:50;;;;;;;22.70;20.30;;;;;;;14.78;100.00;101307.94;5008774;28;20033;-67
2023/05/22 01:42:16;;;;;;;22.67;20.38;;;;;;;14.79;100.00;101301.88;5009293;28;20022;-67
2023/05/22 01:44:42;;;;;;;22.85;20.33;;;;;;;14.77;100.00;101303.56;5008235;28;20108;-68
2023/05/22 01:47:07;;;;;;;25.30;21.05;;;;;;;14.75;100.00;101305.28;5009065;28;20046;-67
2023/05/22 01:49:34;;;;;;;26.48;21.85;;;;;;;14.72;100.00;101316.50;4991269;28;20026;-67
2023/05/22 01:52:14;;;;;;;28.17;22.23;;;;;;;14.69;100.00;101311.22;5009054;28;20025;-67
2023/05/22 01:54:49;;;;;;;22.42;20.02;;;;;;;14.69;100.00;101315.56;5008517;28;20026;-67
2023/05/22 01:57:20;;;;;;;27.23;21.50;;;;;;;14.66;100.00;101313.75;5008689;28;20061;-68
2023/05/22 01:59:49;;;;;;;24.75;22.15;;;;;;;14.62;100.00;101305.00;5008983;28;20029;-67
2023/05/22 02:02:17;;;;;;;25.02;22.35;;;;;;;14.60;100.00;101306.69;5008969;28;20030;-67
2023/05/22 02:04:53;;;;;;;26.38;23.40;;;;;;;14.55;100.00;101312.63;5008379;28;20084;-67
2023/05/22 02:07:21;;;;;;;27.80;22.77;;;;;;;14.53;100.00;101310.84;5008086;28;20048;-67
2023/05/22 02:09:49;;;;;;;25.60;22.42;;;;;;;14.51;100.00;101302.16;5008848;28;20017;-68
2023/05/22 02:12:15;;;;;;;25.98;23.23;;;;;;;14.48;100.00;101304.66;5008661;28;20018;-67
2023/05/22 02:14:42;;;;;;;28.25;23.52;;;;;;;14.47;100.00;101302.03;5008493;28;20087;-67
2023/05/22 02:17:07;;;;;;;25.77;23.02;;;;;;;14.42;100.00;101296.72;5008576;28;20034;-68
2023/05/22 02:19:34;;;;;;;27.50;24.48;;;;;;;14.40;100.00;101303.59;5008483;28;20030;-67
2023/05/22 02:22:00;;;;;;;26.23;23.42;;;;;;;14.37;100.00;101304.41;4990254;28;20620;-67
2023/05/22 02:24:25;;;;;;;27.10;24.13;;;;;;;14.33;100.00;101307.81;5008508;28;20468;-68
2023/05/22 02:26:50;;;;;;;27.80;24.90;;;;;;;14.28;100.00;101296.38;5008423;28;20457;-67
2023/05/22 02:29:15;;;;;;;29.30;24.95;;;;;;;14.25;100.00;101298.91;5008431;28;20075;-67
2023/05/22 02:31:41;;;;;;;27.35;24.48;;;;;;;14.22;100.00;101291.91;5007821;28;20173;-68
2023/05/22 02:34:06;;;;;;;27.13;24.15;;;;;;;14.19;100.00;101293.56;5008247;28;20026;-68
2023/05/22 02:36:31;;;;;;;27.73;23.55;;;;;;;14.18;100.00;101297.88;5008201;28;20751;-67
2023/05/22 02:39:00;;;;;;;28.02;23.98;;;;;;;14.15;100.00;101282.16;5008146;28;20026;-67
2023/05/22 02:41:25;;;;;;;28.73;25.58;;;;;;;14.16;100.00;101286.53;5007314;28;20128;-68
2023/05/22 02:43:50;;;;;;;31.70;25.75;;;;;;;14.10;100.00;101295.09;5008172;28;20148;-67
2023/05/22 02:46:15;;;;;;;27.65;24.75;;;;;;;14.05;100.00;101291.47;5008001;28;20014;-67
2023/05/22 02:48:41;;;;;;;27.05;24.23;;;;;;;14.02;100.00;101291.41;5006899;28;20025;-67
2023/05/22 02:51:06;;;;;;;30.05;25.63;;;;;;;14.00;100.00;101282.66;5007752;28;20026;-68
2023/05/22 02:53:34;;;;;;;28.88;25.65;;;;;;;14.00;100.00;101285.28;5007305;28;20108;-67
2023/05/22 02:56:00;;;;;;;27.08;24.17;;;;;;;14.00;100.00;101277.44;5007594;28;20029;-67
2023/05/22 02:58:25;;;;;;;32.75;26.05;;;;;;;13.98;100.00;101280.03;5007527;28;20018;-67
2023/05/22 03:00:52;;;;;;;29.23;25.50;;;;;;;13.96;100.00;101276.50;5007156;28;20041;-67
2023/05/22 03:03:17;;;;;;;29.23;25.58;;;;;;;13.98;100.00;101273.91;4989883;28;20026;-67
2023/05/22 03:05:43;;;;;;;27.65;24.88;;;;;;;13.97;100.00;101272.19;5007723;28;20036;-68
2023/05/22 03:08:09;;;;;;;28.40;25.40;;;;;;;13.98;100.00;101277.41;5008111;28;20434;-68
2023/05/22 03:10:34;;;;;;;27.80;24.80;;;;;;;13.96;100.00;101275.63;5007391;28;20028;-67
2023/05/22 03:12:59;;;;;;;29.80;24.77;;;;;;;13.95;100.00;101279.06;5007878;28;20497;-67
2023/05/22 03:15:24;;;;;;;27.80;24.90;;;;;;;13.93;100.00;101274.72;5007749;28;20473;-67
2023/05/22 03:17:50;;;;;;;28.58;25.45;;;;;;;13.91;100.00;101271.19;5007235;28;20065;-67
2023/05/22 03:20:15;;;;;;;30.00;25.35;;;;;;;13.89;100.00;101264.16;4989817;28;20121;-68
2023/05/22 03:22:44;;;;;;;30.77;27.50;;;;;;;13.86;100.00;101269.28;5007256;28;20026;-68
2023/05/22 03:25:09;;;;;;;28.13;25.23;;;;;;;13.82;100.00;101273.53;5007516;28;20030;-68
2023/05/22 03:27:37;;;;;;;31.35;26.10;;;;;;;13.78;100.00;101269.13;5007776;28;20128;-68
2023/05/22 03:30:02;;;;;;;28.65;25.63;;;;;;;13.74;100.00;101270.75;5007188;28;20030;-68
2023/05/22 03:32:28;;;;;;;30.52;27.25;;;;;;;13.69;100.00;101275.84;5006561;28;20504;-69
2023/05/22 03:34:53;;;;;;;28.45;25.38;;;;;;;13.65;100.00;101276.59;5005826;28;20056;-69
2023/05/22 03:37:18;;;;;;;29.63;26.40;;;;;;;13.63;100.00;101275.69;5005537;28;20042;-68
2023/05/22 03:39:44;;;;;;;30.35;25.63;;;;;;;13.62;100.00;101268.69;5005167;28;20088;-69
2023/05/22 03:42:09;;;;;;;29.48;26.27;;;;;;;13.64;100.00;101273.94;4987943;28;20026;-68
2023/05/22 03:44:34;;;;;;;28.67;25.77;;;;;;;13.62;100.00;101263.50;5005349;28;20092;-68
2023/05/22 03:47:00;;;;;;;32.58;26.23;;;;;;;13.63;100.00;101273.09;4987947;28;20034;-68
2023/05/22 03:49:25;;;;;;;29.83;26.55;;;;;;;13.61;100.00;101269.56;5004642;28;20334;-68
2023/05/22 03:51:51;;;;;;;30.63;26.58;;;;;;;13.59;100.00;101271.22;5005532;28;20013;-68
2023/05/22 03:54:16;;;;;;;31.55;26.50;;;;;;;13.59;100.00;101273.84;5006670;28;20025;-68
2023/05/22 03:56:42;;;;;;;31.70;27.02;;;;;;;13.59;100.00;101267.75;5007606;28;20025;-66
2023/05/22 03:59:07;;;;;;;31.65;27.23;;;;;;;13.60;100.00;101265.16;4990180;28;20017;-68
2023/05/22 04:01:32;;;;;;;31.05;27.58;;;;;;;13.62;100.00;101260.00;5008348;28;20823;-67
2023/05/22 04:03:58;;;;;;;30.83;27.55;;;;;;;13.62;100.00;101258.28;5008487;28;20026;-66
2023/05/22 04:06:24;;;;;;;32.83;27.10;;;;;;;13.63;100.00;101253.97;5008016;28;20025;-66
2023/05/22 04:08:49;;;;;;;35.30;28.67;;;;;;;13.62;100.00;101258.28;5006952;28;20053;-66
2023/05/22 04:11:15;;;;;;;34.95;29.30;;;;;;;13.62;100.00;101260.88;5008125;28;20053;-66
2023/05/22 04:13:41;;;;;;;34.30;29.27;;;;;;;13.61;100.00;101264.34;5007657;28;20531;-66
2023/05/22 04:16:07;;;;;;;37.70;29.25;;;;;;;13.58;100.00;101269.47;5008009;28;20053;-67
2023/05/22 04:18:32;;;;;;;33.00;29.25;;;;;;;13.58;100.00;101272.09;5007825;28;20057;-66
2023/05/22 04:20:57;;;;;;;33.55;28.40;;;;;;;13.57;100.00;101278.13;4989971;28;20022;-66
2023/05/22 04:23:23;;;;;;;32.85;28.10;;;;;;;13.56;100.00;101276.38;5007511;28;20025;-66
2023/05/22 04:25:48;;;;;;;37.80;28.42;;;;;;;13.57;100.00;101278.13;5007634;28;20014;-66
2023/05/22 04:28:16;;;;;;;31.55;27.80;;;;;;;13.55;100.00;101279.78;5008688;28;20112;-66
2023/05/22 04:30:42;;;;;;;32.95;28.85;;;;;;;13.55;100.00;101279.78;4993937;28;20068;-67
2023/05/22 04:33:07;;;;;;;37.05;29.38;;;;;;;13.56;100.00;101292.00;5011058;28;20057;-66
2023/05/22 04:35:33;;;;;;;35.78;30.08;;;;;;;13.55;100.00;101291.09;5011037;28;20036;-67
2023/05/22 04:38:01;;;;;;;39.45;30.25;;;;;;;13.57;100.00;101293.75;5010601;28;20042;-66
2023/05/22 04:40:29;;;;;;;39.05;28.92;;;;;;;13.57;100.00;101293.75;5010495;28;20111;-66
2023/05/22 04:42:58;;;;;;;32.38;28.85;;;;;;;13.58;100.00;101295.53;5011155;28;20445;-68
2023/05/22 04:45:24;;;;;;;33.58;27.13;;;;;;;13.59;100.00;101297.28;5010760;28;20487;-67
2023/05/22 04:47:51;;;;;;;30.80;27.33;;;;;;;13.62;100.00;101301.66;5010651;28;20105;-68
2023/05/22 04:50:17;;;;;;;38.20;30.13;;;;;;;13.62;100.00;101296.47;5011055;28;20036;-67
2023/05/22 04:52:43;;;;;;;34.88;28.92;;;;;;;13.64;100.00;101295.66;5010255;28;20065;-67
2023/05/22 04:55:10;;;;;;;37.60;29.05;;;;;;;13.64;100.00;101300.00;4993153;28;20062;-67
2023/05/22 04:57:36;;;;;;;36.42;30.58;;;;;;;13.64;100.00;101293.06;4992945;28;20109;-68
2023/05/22 05:00:03;;;;;;;35.67;30.13;;;;;;;13.65;100.00;101297.41;5010684;28;20458;-68
2023/05/22 05:02:28;;;;;;;35.65;30.35;;;;;;;13.66;100.00;101299.19;5010735;28;20054;-67
2023/05/22 05:04:54;;;;;;;33.80;29.17;;;;;;;13.69;100.00;101309.69;4992894;28;20096;-66
2023/05/22 05:07:20;;;;;;;40.55;31.08;;;;;;;13.69;100.00;101309.69;5009969;28;20363;-67
2023/05/22 05:09:45;;;;;;;42.63;30.85;;;;;;;13.65;100.00;101312.19;5010698;28;20036;-66
2023/05/22 05:12:11;;;;;;;34.58;28.17;;;;;;;13.67;100.00;101316.56;5010568;28;20104;-66
2023/05/22 05:14:36;;;;;;;37.35;29.45;;;;;;;13.67;100.00;101316.56;5010510;28;20030;-67
2023/05/22 05:17:01;;;;;;;40.17;29.63;;;;;;;13.72;100.00;101318.44;5010180;28;20021;-67
2023/05/22 05:19:26;;;;;;;35.47;28.45;;;;;;;13.73;100.00;101321.06;4992536;28;20022;-67
2023/05/22 05:21:52;;;;;;;50.22;30.63;;;;;;;13.72;100.00;101324.53;5010199;28;20489;-68
2023/05/22 05:24:17;;;;;;;39.85;30.60;;;;;;;13.74;100.00;101324.56;5010685;28;20032;-67
2023/05/22 05:26:43;;;;;;;40.72;30.38;;;;;;;13.73;100.00;101322.78;5010067;28;20033;-67
2023/05/22 05:29:08;;;;;;;44.40;31.50;;;;;;;13.75;100.00;101324.59;5010305;28;20022;-67
2023/05/22 05:31:33;;;;;;;44.88;31.95;;;;;;;13.74;100.00;101322.84;5010159;28;20468;-67
2023/05/22 05:33:59;;;;;;;43.67;32.30;;;;;;;13.76;100.00;101326.34;5009859;28;20076;-67
2023/05/22 05:36:24;;;;;;;44.22;31.75;;;;;;;13.78;100.00;101323.81;5009581;28;20501;-67
2023/05/22 05:38:50;;;;;;;45.65;32.10;;;;;;;13.79;100.00;101309.94;5009746;28;20034;-68
2023/05/22 05:41:15;;;;;;;43.47;30.70;;;;;;;13.84;100.00;101312.66;5010115;28;20029;-67
2023/05/22 05:43:41;;;;;;;44.08;31.88;;;;;;;13.88;100.00;101311.91;5009173;28;20469;-68
2023/05/22 05:46:06;;;;;;;47.38;32.50;;;;;;;13.89;100.00;101317.16;5008956;28;20141;-67
2023/05/22 05:48:31;;;;;;;45.65;32.78;;;;;;;13.92;100.00;101313.75;5010203;28;20404;-67
2023/05/22 05:50:56;;;;;;;44.08;32.40;;;;;;;13.95;100.00;101323.34;5008983;28;20033;-67
2023/05/22 05:53:22;;;;;;;47.65;32.60;;;;;;;13.98;100.00;101320.81;5008744;28;20050;-67
2023/05/22 05:55:47;;;;;;;38.60;31.45;;;;;;;14.01;100.00;101327.00;5008909;28;20022;-68
2023/05/22 05:58:12;;;;;;;46.97;31.35;;;;;;;14.03;100.00;101319.25;5008518;28;20117;-68
2023/05/22 06:00:38;;;;;;;45.63;32.95;;;;;;;14.08;100.00;101328.06;4990751;28;20037;-67
2023/05/22 06:03:03;;;;;;;45.47;32.10;;;;;;;14.12;100.00;101322.06;5006842;28;20116;-67
2023/05/22 06:05:28;;;;;;;48.33;34.58;;;;;;;14.18;100.00;101323.94;5007523;28;20026;-67
2023/05/22 06:07:57;;;;;;;47.22;33.00;;;;;;;14.21;100.00;101330.97;5008448;28;20018;-67
2023/05/22 06:10:22;;;;;;;48.83;34.05;;;;;;;14.26;100.00;101332.84;5008385;28;20047;-68
2023/05/22 06:12:47;;;;;;;42.80;31.83;;;;;;;14.32;100.00;101332.09;5008708;28;20033;-67
2023/05/22 06:15:13;;;;;;;45.75;31.75;;;;;;;14.35;100.00;101334.78;5008653;28;20033;-67
2023/05/22 06:17:38;;;;;;;46.28;33.40;;;;;;;14.39;100.00;101334.00;5008655;28;20625;-67
2023/05/22 06:20:05;;;;;;;42.72;32.25;;;;;;;14.41;100.00;101337.53;5008806;28;20022;-67
2023/05/22 06:22:31;;;;;;;42.72;33.38;;;;;;;14.49;100.00;101339.44;5008477;28;20036;-67
2023/05/22 06:24:56;;;;;;;44.22;33.08;;;;;;;14.49;100.00;101339.44;5007524;28;20022;-67
2023/05/22 06:27:23;;;;;;;42.08;32.58;;;;;;;14.56;100.00;101340.47;5006663;28;20030;-67
2023/05/22 06:29:49;;;;;;;43.65;31.92;;;;;;;14.62;100.00;101333.69;5006449;28;20018;-67
2023/05/22 06:32:15;;;;;;;40.38;32.25;;;;;;;14.68;100.00;101335.53;5006763;28;20117;-67
2023/05/22 06:34:43;;;;;;;46.10;31.95;;;;;;;14.75;100.00;101341.78;5006622;28;20176;-67
2023/05/22 06:37:08;;;;;;;44.95;33.25;;;;;;;14.79;100.00;101347.97;5007355;28;20049;-67
2023/05/22 06:39:34;;;;;;;46.13;34.40;;;;;;;14.83;100.00;101344.59;5006454;28;20480;-67
2023/05/22 06:41:59;;;;;;;40.53;32.58;;;;;;;14.87;100.00;101355.13;5005977;28;20018;-67
2023/05/22 06:44:24;;;;;;;42.15;34.83;;;;;;;14.91;100.00;101347.38;5007200;28;20044;-67
2023/05/22 06:46:51;;;;;;;46.50;33.75;;;;;;;14.95;100.00;101354.44;5007093;28;20036;-67
2023/05/22 06:49:16;;;;;;;48.10;35.10;;;;;;;15.03;100.00;101357.19;5006903;28;20022;-67
2023/05/22 06:51:42;;;;;;;44.92;35.05;;;;;;;15.08;100.00;101356.44;5006548;28;20371;-67
2023/05/22 06:54:08;;;;;;;46.85;35.58;;;;;;;15.15;100.00;101361.81;5007142;28;20040;-67
2023/05/22 06:56:33;;;;;;;43.33;33.20;;;;;;;15.19;100.00;101366.22;5007384;28;20032;-66
2023/05/22 06:58:59;;;;;;;45.47;34.03;;;;;;;15.23;100.00;101366.34;5005783;28;20022;-67
2023/05/22 07:01:24;;;;;;;49.28;34.22;;;;;;;15.25;100.00;101371.59;5004727;28;20028;-67
2023/05/22 07:03:49;;;;;;;43.78;34.50;;;;;;;15.26;100.00;101370.72;5005005;28;20033;-68
2023/05/22 07:06:15;;;;;;;49.90;33.88;;;;;;;15.28;100.00;101371.66;4992249;28;20040;-67
2023/05/22 07:08:40;;;;;;;41.92;34.40;;;;;;;15.31;100.00;101379.53;5005170;28;20083;-67
2023/05/22 07:11:07;;;;;;;44.70;35.15;;;;;;;15.34;100.00;101374.38;5005164;28;20029;-68
2023/05/22 07:13:32;;;;;;;47.42;35.83;;;;;;;15.36;100.00;101385.75;5005871;28;20044;-67
2023/05/22 07:15:58;;;;;;;50.00;37.03;;;;;;;15.36;100.00;101377.91;5007435;28;20022;-66
2023/05/22 07:18:23;;;;;;;51.60;36.50;;;;;;;15.40;100.00;101383.22;5007394;28;20037;-67
2023/05/22 07:20:48;;;;;;;51.15;39.28;;;;;;;15.41;100.00;101387.56;5007591;28;20033;-67
2023/05/22 07:23:14;;;;;;;47.40;38.90;;;;;;;15.43;100.00;101388.50;5007831;28;20022;-66
2023/05/22 07:25:39;;;;;;;47.20;37.05;;;;;;;15.43;100.00;101388.50;5007242;28;20068;-67
2023/05/22 07:28:07;;;;;;;46.30;34.90;;;;;;;15.47;100.00;101385.97;5007510;28;20042;-67
2023/05/22 07:30:35;;;;;;;48.17;36.67;;;;;;;15.52;100.00;101388.69;5007852;28;20519;-66
2023/05/22 07:33:00;;;;;;;46.08;37.08;;;;;;;15.54;100.00;101381.72;4989436;28;20026;-67
2023/05/22 07:35:25;;;;;;;45.30;37.15;;;;;;;15.57;100.00;101397.50;5007692;28;20472;-67
2023/05/22 07:37:51;;;;;;;50.05;39.78;;;;;;;15.60;100.00;101397.53;5006786;28;20046;-67
2023/05/22 07:40:16;;;;;;;47.20;38.17;;;;;;;15.60;100.00;101391.44;5007413;28;20068;-67
2023/05/22 07:42:41;;;;;;;44.63;36.97;;;;;;;15.65;100.00;101399.38;5005963;28;20034;-67
2023/05/22 07:45:07;;;;;;;51.78;40.47;;;;;;;15.69;100.00;101406.41;5007415;28;20021;-67
2023/05/22 07:47:33;;;;;;;50.20;41.08;;;;;;;15.72;100.00;101396.03;5006920;28;20416;-66
2023/05/22 07:49:58;;;;;;;47.50;40.08;;;;;;;15.78;100.00;101398.75;5007231;28;20485;-67
2023/05/22 07:52:23;;;;;;;48.67;38.55;;;;;;;15.83;100.00;101398.84;5007050;28;20053;-66
2023/05/22 07:54:48;;;;;;;46.72;39.63;;;;;;;15.84;100.00;101404.09;5007118;28;20033;-67
2023/05/22 07:57:15;;;;;;;46.75;39.70;;;;;;;15.91;100.00;101412.06;5006945;28;20026;-66
2023/05/22 07:59:42;;;;;;;47.13;38.80;;;;;;;15.95;100.00;101419.09;5007297;28;20025;-67
2023/05/22 08:02:08;;;;;;;55.88;43.03;;;;;;;15.96;100.00;101405.16;5007451;28;20026;-67
2023/05/22 08:04:34;;;;;;;49.88;40.17;;;;;;;16.00;100.00;101412.25;5009733;28;20100;-67
2023/05/22 08:07:00;;;;;;;50.15;40.65;;;;;;;16.04;100.00;101398.41;4993617;28;20333;-67
2023/05/22 08:09:25;;;;;;;50.88;40.47;;;;;;;16.11;100.00;101403.72;5010901;28;20353;-67
2023/05/22 08:11:51;;;;;;;54.35;41.47;;;;;;;16.13;100.00;101407.25;5011003;28;20504;-67
2023/05/22 08:14:16;;;;;;;51.65;41.38;;;;;;;16.20;100.00;101403.91;5010620;28;20022;-67
2023/05/22 08:16:41;;;;;;;47.97;40.17;;;;;;;16.23;100.00;101406.56;5010869;28;20072;-68
2023/05/22 08:19:07;;;;;;;55.90;42.60;;;;;;;16.26;100.00;101398.75;5009984;28;20026;-67
2023/05/22 08:21:33;;;;;;;51.90;40.45;;;;;;;16.29;100.00;101398.84;5011009;28;20073;-68
2023/05/22 08:23:59;;;;;;;46.78;38.10;;;;;;;16.38;100.00;101392.00;5011659;28;20094;-68
2023/05/22 08:26:25;;;;;;;45.67;39.55;;;;;;;16.51;100.00;101401.81;5010501;28;20025;-69
2023/05/22 08:28:51;;;;;;;47.97;38.55;;;;;;;16.63;100.00;101397.63;5011347;28;20018;-70
2023/05/22 08:31:16;;;;;;;44.47;37.28;;;;;;;16.72;100.00;101392.53;5011652;28;20033;-68
2023/05/22 08:33:41;;;;;;;48.33;39.58;;;;;;;16.80;100.00;101390.91;5009291;28;20030;-68
2023/05/22 08:36:07;;;;;;;43.05;37.90;;;;;;;16.89;100.00;101398.00;5009533;28;20037;-67
2023/05/22 08:38:32;;;;;;;48.13;41.50;;;;;;;16.90;100.00;101399.78;5009220;28;20464;-68
2023/05/22 08:40:58;;;;;;;46.22;38.55;;;;;;;16.95;100.00;101391.97;5008524;28;20081;-68
2023/05/22 08:43:23;;;;;;;47.53;39.80;;;;;;;17.01;100.00;101394.69;5009575;28;20521;-68
2023/05/22 08:45:58;;;;;;;45.55;40.00;;;;;;;17.08;100.00;101384.28;5009603;28;20026;-68
2023/05/22 08:48:27;;;;;;;49.22;42.08;;;;;;;17.12;100.00;101380.91;5008797;28;20038;-68
2023/05/22 08:50:57;;;;;;;44.95;39.20;;;;;;;17.26;100.00;101384.59;5010493;28;20307;-68
2023/05/22 08:53:23;;;;;;;46.35;39.75;;;;;;;17.47;100.00;101392.66;5008196;28;20032;-69
2023/05/22 08:55:50;;;;;;;47.25;40.30;;;;;;;17.62;100.00;101391.97;5008440;28;20112;-68
2023/05/22 08:58:16;;;;;;;51.50;42.15;;;;;;;17.64;100.00;101387.66;4990150;28;20056;-68
2023/05/22 09:00:42;;;;;;;48.53;41.22;;;;;;;17.74;100.00;101381.63;5007578;28;20049;-68
2023/05/22 09:03:12;;;;;;;50.90;41.28;;;;;;;17.86;100.00;101390.50;5008417;28;20032;-68
2023/05/22 09:05:38;;;;;;;48.78;40.65;;;;;;;18.00;100.00;101394.16;5009861;28;20057;-67
2023/05/22 09:08:03;;;;;;;48.65;42.45;;;;;;;18.25;100.00;101396.13;5009866;28;20298;-68
2023/05/22 09:10:29;;;;;;;47.55;41.53;;;;;;;18.49;100.00;101391.97;4991548;28;20026;-68
2023/05/22 09:13:08;;;;;;;54.10;44.22;;;;;;;18.60;100.00;101394.69;5009729;28;20121;-68
2023/05/22 09:15:35;;;;;;;50.55;43.92;;;;;;;18.70;100.00;101393.88;5009005;28;20034;-68
2023/05/22 09:18:04;;;;;;;49.63;42.25;;;;;;;18.86;100.00;101388.72;5009286;28;20488;-68
2023/05/22 09:20:37;;;;;;;51.83;45.33;;;;;;;18.96;100.00;101395.78;4991934;28;20080;-68
2023/05/22 09:23:14;;;;;;;58.92;47.25;;;;;;;19.10;100.00;101391.47;5008956;28;20405;-68
2023/05/22 09:25:41;;;;;;;57.33;47.35;;;;;;;19.13;100.00;101397.66;5009704;28;20147;-69
2023/05/22 09:28:07;;;;;;;58.80;47.53;;;;;;;19.12;100.00;101390.66;5003975;28;20029;-69
2023/05/22 09:30:35;;;;;;;67.65;49.72;;;;;;;19.14;100.00;101391.50;4991711;28;20029;-69
2023/05/22 09:33:01;;;;;;;66.50;49.65;;;;;;;19.15;100.00;101384.53;5008709;28;20168;-68
2023/05/22 09:35:29;;;;;;;65.05;50.25;;;;;;;19.13;100.00;101388.88;5009337;28;20481;-68
2023/05/22 09:37:56;;;;;;;64.45;49.15;;;;;;;19.11;100.00;101388.84;5008542;28;20091;-68
2023/05/22 09:40:21;;;;;;;60.47;47.13;;;;;;;19.14;100.00;101393.28;5009366;28;20807;-68
2023/05/22 09:42:47;;;;;;;62.03;47.78;;;;;;;19.10;100.00;101383.59;5008940;28;20025;-66
2023/05/22 09:45:12;;;;;;;60.95;47.78;;;;;;;19.12;100.00;101384.50;5008500;28;20030;-68
2023/05/22 09:47:39;;;;;;;61.67;47.67;;;;;;;19.18;100.00;101382.78;5007516;28;20025;-68
2023/05/22 09:50:06;;;;;;;60.53;46.22;;;;;;;19.26;100.00;101384.56;5008937;28;20045;-67
2023/05/22 09:52:34;;;;;;;57.90;46.47;;;;;;;19.37;100.00;101382.00;5008580;28;20017;-68
2023/05/22 09:55:07;;;;;;;58.53;45.08;;;;;;;19.61;100.00;101391.69;5008028;28;20112;-67
2023/05/22 09:57:47;;;;;;;61.15;46.33;;;;;;;19.78;100.00;101377.72;5007866;28;20334;-67
2023/05/22 10:00:18;;;;;;;58.45;44.53;;;;;;;19.99;100.00;101373.34;5008492;28;20275;-67
2023/05/22 10:02:46;;;;;;;57.35;44.83;;;;;;;19.96;100.00;101368.09;5008296;28;20026;-67
2023/05/22 10:05:20;;;;;;;56.53;43.65;;;;;;;20.10;100.00;101378.66;4991031;28;20513;-67
2023/05/22 10:07:51;;;;;;;51.22;41.47;;;;;;;20.46;100.00;101376.03;5008038;28;20041;-68
2023/05/22 10:10:23;;;;;;;54.60;43.65;;;;;;;20.71;100.00;101376.00;5008101;28;20477;-67
2023/05/22 10:12:56;;;;;;;48.00;39.35;;;;;;;21.04;100.00;101370.69;4990761;28;20021;-67
2023/05/22 10:15:22;;;;;;;51.47;42.47;;;;;;;21.23;100.00;101374.13;5006932;28;20040;-68
2023/05/22 10:17:48;;;;;;;51.85;42.85;;;;;;;21.29;100.00;101379.38;5008155;28;20828;-68
2023/05/22 10:20:14;;;;;;;50.17;40.25;;;;;;;21.37;100.00;101373.19;5007420;28;20025;-67
2023/05/22 10:22:40;;;;;;;45.05;37.97;;;;;;;21.47;100.00;101373.13;4997645;28;20041;-67
2023/05/22 10:25:06;;;;;;;45.92;36.88;;;;;;;21.74;100.00;101375.63;5008067;28;20034;-67
2023/05/22 10:27:32;;;;;;;48.95;39.88;;;;;;;21.92;100.00;101374.66;4997252;28;20014;-67
2023/05/22 10:30:08;;;;;;;44.83;37.70;;;;;;;21.98;100.00;101372.84;5006564;28;20524;-67
2023/05/22 10:32:45;;;;;;;41.97;35.90;;;;;;;22.09;100.00;101368.34;4997454;28;20022;-67
2023/05/22 10:35:19;;;;;;;47.78;38.13;;;;;;;22.23;99.40;101368.25;5006398;28;20250;-68
2023/05/22 10:37:49;;;;;;;39.33;33.35;;;;;;;22.25;100.00;101365.59;5005587;28;20088;-68
2023/05/22 10:40:33;;;;;;;38.63;32.03;;;;;;;22.32;100.00;101364.66;5005686;28;20487;-67
2023/05/22 10:42:59;;;;;;;43.67;36.38;;;;;;;22.20;99.84;101363.00;5005478;28;20573;-68
2023/05/22 10:45:27;;;;;;;42.13;34.90;;;;;;;22.22;100.00;101365.63;4996094;28;20049;-68
2023/05/22 10:48:10;;;;;;;43.50;36.28;;;;;;;22.35;99.60;101366.38;5006236;28;20040;-68
2023/05/22 10:50:37;;;;;;;41.47;34.67;;;;;;;22.44;98.26;101361.03;5006376;28;20022;-68
2023/05/22 10:53:25;;;;;;;39.72;33.15;;;;;;;22.49;97.89;101359.22;5005824;28;20075;-68
2023/05/22 10:56:01;;;;;;;38.05;33.95;;;;;;;22.69;100.00;101354.63;5005385;28;20017;-68
2023/05/22 10:58:35;;;;;;;35.58;31.20;;;;;;;22.83;99.90;101357.16;5007573;28;20459;-68
2023/05/22 11:01:12;;;;;;;36.33;32.42;;;;;;;22.75;96.91;101360.75;4990104;28;20026;-68